^^
Grace C. Lehan Memorial Weather Station Historical Data
Daily Summary for January 24, 2021 Units:  English    Metric   Both
Daily Weekly Monthly Yearly
  High: Low: Average:
Temperature: 71.9 °F 54.6 °F 63.4 °F
Dew Point: 51.1 °F 45.6 °F 48 °F
Humidity: 72% 41.2% 58%
Wind Speed: 2mph 0mph 0.4mph
Wind Gust: 11mph - -
Wind- - SW
Pressure: 30.28 in 30.07 in -
Precipitation: 0.00 in    
 
 
Tabular Data for January 24, 2021
Time Temperature Dew Point Pressure Wind Wind Speed Wind Gust Humidity Rainfall Rate (Hourly) solar
00:00 62.8 °F 47.8 °F 30.07 in Calm   11 mph 58% 0.00 in 0 W/m2
00:09 62.6 °F 48.1 °F 30.07 in NNE 0.2 mph 6 mph 59% 0.00 in 0 W/m2
00:14 62.5 °F 48 °F 30.08 in North 0.2 mph 6 mph 59.1% 0.00 in 0 W/m2
00:19 62.3 °F 47.9 °F 30.08 in ENE 0.1 mph 6 mph 59.1% 0.00 in 0 W/m2
00:24 62.2 °F 48.2 °F 30.08 in Calm   6 mph 60% 0.00 in 0 W/m2
00:29 62.1 °F 48.1 °F 30.08 in North 0.9 mph 6 mph 60% 0.00 in 0 W/m2
00:34 62 °F 48 °F 30.08 in NNW 0.1 mph 6 mph 60% 0.00 in 0 W/m2
00:39 61.9 °F 48.1 °F 30.09 in NNW 0.4 mph 3 mph 60.6% 0.00 in 0 W/m2
00:44 61.7 °F 48.5 °F 30.09 in NNW 0.7 mph 4 mph 61.7% 0.00 in 0 W/m2
00:49 61.6 °F 48.9 °F 30.09 in Calm   4 mph 62.9% 0.00 in 0 W/m2
00:54 61.4 °F 49 °F 30.10 in NNW 0.3 mph 4 mph 63.6% 0.00 in 0 W/m2
00:59 61.3 °F 49.4 °F 30.10 in NNW 0.7 mph 4 mph 65% 0.00 in 0 W/m2
01:04 61.1 °F 49.2 °F 30.10 in NNW 0.5 mph 4 mph 65% 0.00 in 0 W/m2
01:09 60.9 °F 49.5 °F 30.10 in NNW 0.3 mph 4 mph 66% 0.00 in 0 W/m2
01:14 60.8 °F 49.3 °F 30.10 in NNW 0.5 mph 6 mph 66% 0.00 in 0 W/m2
01:19 60.7 °F 49.2 °F 30.10 in NNW 0.3 mph 6 mph 66% 0.00 in 0 W/m2
01:24 60.5 °F 49.1 °F 30.10 in NNW 0.9 mph 6 mph 66% 0.00 in 0 W/m2
01:29 60.4 °F 49 °F 30.10 in Calm   6 mph 66% 0.00 in 0 W/m2
01:34 60.4 °F 49 °F 30.10 in North 0.1 mph 6 mph 66% 0.00 in 0 W/m2
01:39 60.2 °F 48.9 °F 30.10 in NNW 0.4 mph 4 mph 66% 0.00 in 0 W/m2
01:44 60.1 °F 48.8 °F 30.10 in Calm   4 mph 66.1% 0.00 in 0 W/m2
01:49 60 °F 48.7 °F 30.10 in NNW 0.3 mph 5 mph 66.1% 0.00 in 0 W/m2
01:54 59.9 °F 48.6 °F 30.10 in Calm   5 mph 66.1% 0.00 in 0 W/m2
01:59 59.8 °F 48.7 °F 30.11 in NNW 0.7 mph 5 mph 66.8% 0.00 in 0 W/m2
02:04 59.6 °F 48.4 °F 30.11 in NNW 1 mph 9 mph 66.2% 0.00 in 0 W/m2
02:09 59.5 °F 48.2 °F 30.11 in NE 0.5 mph 9 mph 66% 0.00 in 0 W/m2
02:14 59.4 °F 48.1 °F 30.11 in NNW 0.7 mph 9 mph 66% 0.00 in 0 W/m2
02:19 59.3 °F 48 °F 30.12 in North 0.2 mph 9 mph 66% 0.00 in 0 W/m2
02:24 59.3 °F 47.9 °F 30.12 in North 0.5 mph 9 mph 66% 0.00 in 0 W/m2
02:29 59.1 °F 47.4 °F 30.12 in NNW 0.9 mph 9 mph 65.1% 0.00 in 0 W/m2
02:34 59.1 °F 47.5 °F 30.12 in North 1.5 mph 9 mph 65.3% 0.00 in 0 W/m2
02:39 59 °F 47.3 °F 30.12 in North 0.6 mph 5 mph 65% 0.00 in 0 W/m2
02:44 59 °F 47.4 °F 30.12 in North 0.4 mph 5 mph 65.3% 0.00 in 0 W/m2
02:49 58.9 °F 47.6 °F 30.12 in NNE 0.2 mph 5 mph 66% 0.00 in 0 W/m2
02:54 58.8 °F 47.4 °F 30.12 in NNE 0.2 mph 5 mph 66% 0.00 in 0 W/m2
02:59 58.6 °F 47.3 °F 30.13 in NW 0.7 mph 5 mph 66% 0.00 in 0 W/m2
03:04 58.5 °F 47.2 °F 30.13 in NNW 1.1 mph 5 mph 66% 0.00 in 0 W/m2
03:09 58.3 °F 47 °F 30.13 in NNW 0.3 mph 5 mph 66% 0.00 in 0 W/m2
03:14 58.2 °F 46.9 °F 30.13 in NNW 0.9 mph 6 mph 66% 0.00 in 0 W/m2
03:19 58.1 °F 47 °F 30.13 in NW 0.1 mph 6 mph 66.5% 0.00 in 0 W/m2
03:24 57.9 °F 46.8 °F 30.14 in North 0.4 mph 6 mph 66.5% 0.00 in 0 W/m2
03:29 57.8 °F 46.8 °F 30.14 in NE 0.2 mph 6 mph 66.8% 0.00 in 0 W/m2
03:34 57.7 °F 46.7 °F 30.14 in NNW 0.2 mph 6 mph 66.7% 0.00 in 0 W/m2
03:39 57.6 °F 46.7 °F 30.15 in NNW 0.3 mph 6 mph 67% 0.00 in 0 W/m2
03:44 57.4 °F 46.6 °F 30.15 in NNW 0.2 mph 6 mph 67% 0.00 in 0 W/m2
03:49 57.3 °F 46.4 °F 30.15 in NNW 0.1 mph 6 mph 67% 0.00 in 0 W/m2
03:54 57.1 °F 46.4 °F 30.15 in NNW 0.1 mph 6 mph 67.4% 0.00 in 0 W/m2
03:59 57 °F 46.4 °F 30.15 in Calm   6 mph 67.7% 0.00 in 0 W/m2
04:00 56.9 °F 46.5 °F 30.15 in Calm   6 mph 68% 0.00 in 0 W/m2
04:09 56.7 °F 46.2 °F 30.15 in North 0.1 mph 2 mph 68% 0.00 in 0 W/m2
04:14 56.6 °F 46.4 °F 30.15 in North 0.1 mph 2 mph 68.8% 0.00 in 0 W/m2
04:19 56.4 °F 46.3 °F 30.15 in North 0.1 mph 2 mph 69% 0.00 in 0 W/m2
04:24 56.2 °F 46.3 °F 30.16 in Calm   2 mph 69.4% 0.00 in 0 W/m2
04:29 56 °F 46.4 °F 30.16 in North 0.5 mph 3 mph 70% 0.00 in 0 W/m2
04:34 55.9 °F 46.3 °F 30.16 in Calm   3 mph 70% 0.00 in 0 W/m2
04:39 55.7 °F 46.2 °F 30.16 in Calm   1 mph 70.3% 0.00 in 0 W/m2
04:44 55.6 °F 46.4 °F 30.16 in Calm   1 mph 71% 0.00 in 0 W/m2
04:49 55.5 °F 46.3 °F 30.16 in North 0.1 mph 2 mph 71% 0.00 in 0 W/m2
04:54 55.4 °F 46.2 °F 30.16 in Calm   2 mph 71% 0.00 in 0 W/m2
04:59 55.3 °F 46.1 °F 30.17 in Calm   2 mph 71% 0.00 in 0 W/m2
05:04 55.3 °F 46.1 °F 30.17 in Calm   2 mph 71% 0.00 in 0 W/m2
05:09 55.2 °F 45.9 °F 30.17 in Calm     71% 0.00 in 0 W/m2
05:14 55.1 °F 46 °F 30.17 in Calm     71.3% 0.00 in 0 W/m2
05:19 55 °F 46.1 °F 30.17 in Calm     72% 0.00 in 0 W/m2
05:24 54.9 °F 46 °F 30.18 in Calm     72% 0.00 in 0 W/m2
05:29 54.8 °F 46 °F 30.18 in Calm     72% 0.00 in 7 W/m2
05:34 54.7 °F 45.9 °F 30.18 in Calm     72% 0.00 in 11 W/m2
05:39 54.7 °F 45.9 °F 30.18 in Calm     72% 0.00 in 11 W/m2
05:44 54.7 °F 45.9 °F 30.18 in North 0.1 mph 2 mph 72% 0.00 in 12 W/m2
05:49 54.6 °F 45.8 °F 30.19 in Calm   2 mph 72% 0.00 in 21 W/m2
05:54 54.6 °F 45.8 °F 30.19 in Calm   2 mph 72% 0.00 in 28 W/m2
05:59 54.7 °F 45.8 °F 30.19 in Calm   2 mph 72% 0.00 in 30 W/m2
06:04 54.7 °F 45.9 °F 30.19 in North 0.4 mph 3 mph 72% 0.00 in 35 W/m2
06:09 54.8 °F 46 °F 30.19 in North 0.5 mph 4 mph 72% 0.00 in 37 W/m2
06:14 55 °F 46 °F 30.20 in Calm   4 mph 71.6% 0.00 in 37 W/m2
06:19 55.1 °F 45.9 °F 30.20 in North 0.3 mph 5 mph 71.2% 0.00 in 40 W/m2
06:24 55.3 °F 46 °F 30.20 in Calm   5 mph 71% 0.00 in 40 W/m2
06:29 55.4 °F 45.9 °F 30.20 in Calm   5 mph 70.2% 0.00 in 39 W/m2
06:34 55.5 °F 45.9 °F 30.21 in Calm   5 mph 69.9% 0.00 in 42 W/m2
06:39 55.5 °F 45.6 °F 30.22 in NNW 0.5 mph 4 mph 69.2% 0.00 in 44 W/m2
06:44 55.6 °F 45.8 °F 30.22 in ENE 0.4 mph 4 mph 69.5% 0.00 in 53 W/m2
06:49 55.7 °F 45.8 °F 30.22 in ENE 0.5 mph 4 mph 69.1% 0.00 in 100 W/m2
06:54 56 °F 46.5 °F 30.23 in Calm   4 mph 70.1% 0.00 in 100 W/m2
06:59 56.5 °F 46.6 °F 30.23 in ENE 0.6 mph 5 mph 69.2% 0.00 in 90 W/m2
07:04 56.8 °F 46.5 °F 30.24 in Calm   5 mph 68.3% 0.00 in 86 W/m2
07:09 56.9 °F 46.6 °F 30.24 in Calm   1 mph 68.4% 0.00 in 90 W/m2
07:14 57 °F 46.6 °F 30.24 in NNE 0.4 mph 4 mph 68.2% 0.00 in 202 W/m2
07:19 57.4 °F 47.2 °F 30.24 in NNE 0.2 mph 4 mph 68.7% 0.00 in 352 W/m2
07:24 58.2 °F 47.8 °F 30.24 in East 0.8 mph 5 mph 68.1% 0.00 in 360 W/m2
07:29 59 °F 47.5 °F 30.24 in ENE 0.7 mph 6 mph 65.5% 0.00 in 385 W/m2
07:34 59.7 °F 48.2 °F 30.25 in NE 0.1 mph 6 mph 65.6% 0.00 in 387 W/m2
07:39 60.5 °F 47.9 °F 30.25 in ENE 1.5 mph 6 mph 63.2% 0.00 in 330 W/m2
07:44 60.7 °F 47.6 °F 30.25 in ENE 0.4 mph 6 mph 61.8% 0.00 in 410 W/m2
07:49 61 °F 48.1 °F 30.25 in Calm   6 mph 62.4% 0.00 in 452 W/m2
07:54 61.6 °F 49 °F 30.25 in ENE 0.1 mph 6 mph 63.3% 0.00 in 480 W/m2
07:59 62.4 °F 49 °F 30.25 in NE 0.1 mph 6 mph 61.6% 0.00 in 482 W/m2
08:00 62.7 °F 48.2 °F 30.25 in Calm   6 mph 59% 0.00 in 443 W/m2
08:09 62.8 °F 48.3 °F 30.25 in Calm     59.1% 0.00 in 207 W/m2
08:14 62.6 °F 48.3 °F 30.26 in ENE 0.5 mph 4 mph 59.3% 0.00 in 199 W/m2
08:19 62.5 °F 48.4 °F 30.26 in Calm   4 mph 60% 0.00 in 383 W/m2
08:24 62.5 °F 47.9 °F 30.26 in Calm   4 mph 58.9% 0.00 in 559 W/m2
08:29 62.5 °F 47.9 °F 30.26 in Calm   4 mph 58.9% 0.00 in 559 W/m2
08:34 62.5 °F 48.2 °F 30.26 in Calm   4 mph 59.5% 0.00 in 336 W/m2
08:39 62.5 °F 47.3 °F 30.27 in Calm     57.4% 0.00 in 288 W/m2
08:44 62.5 °F 47.8 °F 30.27 in Calm   1 mph 58.6% 0.00 in 536 W/m2
08:49 62.5 °F 48.2 °F 30.27 in Calm   1 mph 59.4% 0.00 in 536 W/m2
08:54 62.8 °F 48.7 °F 30.28 in ENE 0.2 mph 3 mph 59.8% 0.00 in 663 W/m2
08:59 63.6 °F 48.9 °F 30.28 in South 0.2 mph 4 mph 58.7% 0.00 in 527 W/m2
09:04 64.5 °F 50 °F 30.28 in Calm   4 mph 59.2% 0.00 in 719 W/m2
09:09 65.6 °F 50.2 °F 30.28 in Calm   1 mph 57.6% 0.00 in 719 W/m2
09:14 66.2 °F 50 °F 30.27 in South 0.3 mph 5 mph 55.8% 0.00 in 703 W/m2
09:19 66.2 °F 49 °F 30.27 in South 0.2 mph 5 mph 54% 0.00 in 679 W/m2
09:24 66 °F 49.5 °F 30.27 in Calm   5 mph 55.1% 0.00 in 791 W/m2
09:29 66.6 °F 50.6 °F 30.27 in Calm   5 mph 56.5% 0.00 in 779 W/m2
09:34 67.5 °F 51 °F 30.27 in Calm   5 mph 55.5% 0.00 in 817 W/m2
09:39 68.1 °F 50.5 °F 30.27 in SSE 0.3 mph 3 mph 53.4% 0.00 in 817 W/m2
09:44 67.9 °F 48.2 °F 30.27 in SSE 0.1 mph 3 mph 49.2% 0.00 in 809 W/m2
09:49 67.4 °F 48.7 °F 30.27 in Calm   3 mph 51.2% 0.00 in 838 W/m2
09:54 67.6 °F 49.9 °F 30.27 in Calm   3 mph 53.1% 0.00 in 838 W/m2
09:59 67.6 °F 50 °F 30.27 in Calm   3 mph 53.1% 0.00 in 362 W/m2
10:04 67.3 °F 50.3 °F 30.27 in Calm   3 mph 54.3% 0.00 in 362 W/m2
10:09 67.3 °F 50.7 °F 30.27 in SSE 0.1 mph 2 mph 55.3% 0.00 in 858 W/m2
10:14 67.7 °F 51.1 °F 30.27 in South 0.6 mph 4 mph 55.3% 0.00 in 831 W/m2
10:19 68.4 °F 51.1 °F 30.27 in Calm   4 mph 54% 0.00 in 872 W/m2
10:24 68.6 °F 49.9 °F 30.27 in Calm   4 mph 51.3% 0.00 in 958 W/m2
10:29 68.8 °F 49.5 °F 30.27 in South 0.1 mph 4 mph 50.2% 0.00 in 969 W/m2
10:34 68.8 °F 49.6 °F 30.27 in SSW 0.2 mph 4 mph 50.4% 0.00 in 960 W/m2
10:39 68.8 °F 49.7 °F 30.27 in SSW 0.1 mph 3 mph 50.6% 0.00 in 935 W/m2
10:44 68.5 °F 49.1 °F 30.28 in Calm   3 mph 49.8% 0.00 in 394 W/m2
10:49 67.8 °F 48.8 °F 30.28 in Calm   3 mph 50.4% 0.00 in 469 W/m2
10:54 67.6 °F 49.4 °F 30.28 in Calm   3 mph 52.2% 0.00 in 1160 W/m2
10:59 68.1 °F 50.5 °F 30.28 in SW 0.4 mph 5 mph 53.2% 0.00 in 810 W/m2
11:04 68.8 °F 49.9 °F 30.28 in SW 0.7 mph 5 mph 50.9% 0.00 in 810 W/m2
11:09 69.5 °F 50.4 °F 30.28 in Calm   4 mph 50.7% 0.00 in 810 W/m2
11:14 70 °F 49.9 °F 30.27 in Calm   4 mph 48.8% 0.00 in 524 W/m2
11:19 70.4 °F 49.9 °F 30.27 in SW 0.2 mph 4 mph 48.3% 0.00 in 761 W/m2
11:24 70.4 °F 48.1 °F 30.27 in SW 0.3 mph 4 mph 45% 0.00 in 761 W/m2
11:29 70 °F 47.6 °F 30.27 in SW 0.2 mph 4 mph 44.9% 0.00 in 571 W/m2
11:34 69.3 °F 48.4 °F 30.27 in SSE 0.6 mph 4 mph 47.2% 0.00 in 506 W/m2
11:39 68.7 °F 48.1 °F 30.27 in SSE 0.4 mph 4 mph 47.7% 0.00 in 1241 W/m2
11:44 68.8 °F 49.7 °F 30.27 in SSE 0.6 mph 4 mph 50.4% 0.00 in 1178 W/m2
11:49 69.2 °F 48.1 °F 30.27 in SE 0.1 mph 4 mph 47% 0.00 in 1178 W/m2
11:54 68.9 °F 47.9 °F 30.27 in Calm   4 mph 47% 0.00 in 371 W/m2
11:59 68.6 °F 48.7 °F 30.27 in SSE 0.4 mph 6 mph 48.9% 0.00 in 599 W/m2
12:04 68.6 °F 49.2 °F 30.26 in Calm   6 mph 50% 0.00 in 599 W/m2
12:09 68.6 °F 49.6 °F 30.27 in SW 0.2 mph 5 mph 50.7% 0.00 in 944 W/m2
12:14 68.5 °F 48.8 °F 30.26 in South 1.2 mph 5 mph 49.4% 0.00 in 1083 W/m2
12:19 68.2 °F 48.8 °F 30.27 in South 0.1 mph 5 mph 49.8% 0.00 in 1058 W/m2
12:24 68.3 °F 50.3 °F 30.27 in South 0.2 mph 5 mph 52.5% 0.00 in 1172 W/m2
12:29 68.9 °F 49.5 °F 30.26 in SSW 0.5 mph 5 mph 50% 0.00 in 1042 W/m2
12:34 69 °F 48.4 °F 30.26 in SSW 0.1 mph 5 mph 47.8% 0.00 in 392 W/m2
12:39 68.6 °F 49.4 °F 30.26 in South 0.1 mph 2 mph 50.3% 0.00 in 1072 W/m2
12:44 68.9 °F 50.6 °F 30.25 in SSW 0.6 mph 5 mph 52% 0.00 in 1072 W/m2
12:49 69.7 °F 50.5 °F 30.25 in WSW 1.1 mph 5 mph 50.4% 0.00 in 1000 W/m2
12:54 70.5 °F 49.4 °F 30.25 in WSW 0.5 mph 6 mph 47.1% 0.00 in 1013 W/m2
12:59 70.5 °F 48.7 °F 30.25 in WSW 0.3 mph 6 mph 46.1% 0.00 in 1238 W/m2
13:04 70.7 °F 50.3 °F 30.25 in West 0.4 mph 6 mph 48.5% 0.00 in 1150 W/m2
13:09 70.8 °F 48.9 °F 30.25 in WSW 1.4 mph 10 mph 45.8% 0.00 in 390 W/m2
13:14 70.6 °F 49.5 °F 30.25 in SW 0.7 mph 10 mph 47% 0.00 in 427 W/m2
13:19 70.7 °F 49.4 °F 30.25 in SW 0.8 mph 10 mph 46.9% 0.00 in 1318 W/m2
13:24 71 °F 49 °F 30.25 in WSW 2 mph 10 mph 45.8% 0.00 in 1318 W/m2
13:29 71 °F 48.5 °F 30.25 in WSW 1.3 mph 10 mph 44.8% 0.00 in 436 W/m2
13:34 70.8 °F 48.2 °F 30.24 in SW 1.4 mph 10 mph 44.7% 0.00 in 1236 W/m2
13:39 71 °F 48.6 °F 30.24 in SW 1.7 mph 7 mph 45% 0.00 in 1262 W/m2
13:44 71.4 °F 47.9 °F 30.24 in SSW 1 mph 7 mph 43.3% 0.00 in 1160 W/m2
13:49 71.3 °F 47.8 °F 30.24 in SW 0.8 mph 7 mph 43.3% 0.00 in 1120 W/m2
13:54 71.3 °F 48 °F 30.24 in WSW 0.4 mph 7 mph 43.6% 0.00 in 1067 W/m2
13:59 71.5 °F 47.9 °F 30.23 in WSW 0.6 mph 7 mph 43.1% 0.00 in 1044 W/m2
14:04 71.7 °F 48.4 °F 30.23 in SW 0.6 mph 7 mph 43.6% 0.00 in 1074 W/m2
14:09 71.9 °F 48.2 °F 30.23 in SW 0.6 mph 5 mph 43% 0.00 in 1099 W/m2
14:14 71.8 °F 47.5 °F 30.24 in SW 1.5 mph 9 mph 42% 0.00 in 1099 W/m2
14:19 71.6 °F 46.8 °F 30.23 in South 0.5 mph 9 mph 41.2% 0.00 in 513 W/m2
14:24 71.3 °F 46.9 °F 30.23 in ESE 0.6 mph 9 mph 41.9% 0.00 in 629 W/m2
14:29 70.7 °F 47.1 °F 30.23 in ESE 0.4 mph 9 mph 43% 0.00 in 1085 W/m2
14:34 70.5 °F 47.6 °F 30.23 in South 0.2 mph 9 mph 44.1% 0.00 in 1129 W/m2
14:39 70.6 °F 46.9 °F 30.23 in SSW 0.5 mph 4 mph 42.9% 0.00 in 1129 W/m2
14:44 70.5 °F 47.2 °F 30.23 in SW 0.3 mph 4 mph 43.4% 0.00 in 1123 W/m2
14:49 70.4 °F 46.5 °F 30.23 in South 1 mph 5 mph 42.5% 0.00 in 1123 W/m2
14:54 70.1 °F 46.6 °F 30.22 in South 0.4 mph 5 mph 43.1% 0.00 in 1049 W/m2
14:59 70 °F 46.7 °F 30.22 in South 0.5 mph 5 mph 43.3% 0.00 in 958 W/m2
15:04 69.8 °F 46.8 °F 30.22 in South 0.6 mph 5 mph 43.9% 0.00 in 1002 W/m2
15:09 69.9 °F 47.8 °F 30.22 in SSW 0.8 mph 5 mph 45.3% 0.00 in 1002 W/m2
15:14 70.4 °F 47 °F 30.22 in SSW 1.3 mph 5 mph 43.3% 0.00 in 932 W/m2
15:19 70.5 °F 47 °F 30.22 in SSW 0.2 mph 5 mph 43% 0.00 in 886 W/m2
15:24 70.5 °F 47.5 °F 30.22 in South 0.8 mph 5 mph 43.9% 0.00 in 886 W/m2
15:29 70.8 °F 48.1 °F 30.22 in SW 1.7 mph 10 mph 44.4% 0.00 in 854 W/m2
15:34 71.2 °F 47.7 °F 30.22 in WSW 1 mph 10 mph 43.2% 0.00 in 833 W/m2
15:39 71.1 °F 47.5 °F 30.21 in SSW 0.7 mph 10 mph 43% 0.00 in 828 W/m2
15:44 70.9 °F 47.7 °F 30.21 in South 0.3 mph 10 mph 43.6% 0.00 in 858 W/m2
15:49 71 °F 48.4 °F 30.21 in SSW 1 mph 10 mph 44.6% 0.00 in 824 W/m2
15:54 71.2 °F 48.6 °F 30.21 in SW 0.8 mph 10 mph 44.6% 0.00 in 912 W/m2
15:59 71.5 °F 48.1 °F 30.21 in WSW 0.9 mph 10 mph 43.3% 0.00 in 865 W/m2
16:00 71.5 °F 47.8 °F 30.21 in Calm   10 mph 43% 0.00 in 865 W/m2
Hartford County Weather
Compliments of Weather Underground - 2 mb